Time;durP1;ratioP1;P1;durP2;ratioP2;P2;SDS_P1;SDS_P2;PMS_P1;PMS_P2;Temp;Humidity;BMP_temperature;BMP_pressure;BME280_temperature;BME280_humidity;BME280_pressure;Samples;Min_cycle;Max_cycle;Signal;HPM_P1;HPM_P2
2023/07/18 00:01:39;;;;;;;0.10;0.10;;;18.10;99.90;;;;;;5022870;28;20288;-82
2023/07/18 00:04:05;;;;;;;0.10;0.10;;;17.90;99.90;;;;;;5024780;28;20201;-82
2023/07/18 00:06:32;;;;;;;0.10;0.10;;;18.00;99.90;;;;;;5024491;28;20671;-82
2023/07/18 00:08:57;;;;;;;0.10;0.10;;;17.80;99.90;;;;;;5020483;28;20311;-82
2023/07/18 00:11:23;;;;;;;0.10;0.10;;;17.70;99.90;;;;;;5019475;28;20766;-82
2023/07/18 00:13:49;;;;;;;0.10;0.10;;;17.80;99.90;;;;;;5020206;28;20188;-82
2023/07/18 00:16:15;;;;;;;0.10;0.10;;;17.80;99.90;;;;;;5015876;28;20341;-82
2023/07/18 00:18:40;;;;;;;0.10;0.10;;;17.90;99.90;;;;;;5020128;28;20184;-82
2023/07/18 00:21:07;;;;;;;0.10;0.10;;;17.80;99.90;;;;;;5020783;28;20202;-81
2023/07/18 00:23:33;;;;;;;0.10;0.10;;;17.90;99.90;;;;;;5029771;28;20203;-81
2023/07/18 00:25:59;;;;;;;0.10;0.10;;;17.90;99.90;;;;;;5019960;28;20190;-82
2023/07/18 00:28:25;;;;;;;0.10;0.10;;;17.60;99.90;;;;;;5021332;28;20184;-81
2023/07/18 00:30:51;;;;;;;0.10;0.10;;;17.40;99.90;;;;;;5018564;28;20266;-82
2023/07/18 00:33:16;;;;;;;0.10;0.10;;;17.40;99.90;;;;;;5020257;28;20677;-82
2023/07/18 00:35:43;;;;;;;0.10;0.10;;;17.10;99.90;;;;;;5021073;28;20183;-81
2023/07/18 00:38:11;;;;;;;0.10;0.10;;;17.00;99.90;;;;;;5022976;28;20257;-82
2023/07/18 00:40:37;;;;;;;0.10;0.10;;;17.00;99.90;;;;;;5024363;28;20297;-83
2023/07/18 00:43:03;;;;;;;0.10;0.10;;;17.00;99.90;;;;;;5025787;28;20201;-81
2023/07/18 00:45:29;;;;;;;0.10;0.10;;;17.00;99.90;;;;;;5039143;28;20540;-81
2023/07/18 00:47:55;;;;;;;0.10;0.10;;;17.10;99.90;;;;;;5022594;28;20225;-81
2023/07/18 00:50:21;;;;;;;0.10;0.10;;;17.20;99.90;;;;;;5033785;28;20635;-81
2023/07/18 00:52:52;;;;;;;0.10;0.10;;;17.20;99.90;;;;;;5025442;28;20216;-81
2023/07/18 00:55:18;;;;;;;0.10;0.10;;;17.30;99.90;;;;;;5023820;28;20274;-81
2023/07/18 00:57:45;;;;;;;0.10;0.10;;;17.30;99.90;;;;;;5024423;28;20182;-81
2023/07/18 01:00:12;;;;;;;0.10;0.10;;;17.40;99.90;;;;;;5021229;28;20269;-81
2023/07/18 01:02:43;;;;;;;0.10;0.10;;;17.50;99.90;;;;;;5024796;28;20210;-82
2023/07/18 01:05:10;;;;;;;0.10;0.10;;;17.50;99.90;;;;;;5023253;28;21115;-82
2023/07/18 01:07:35;;;;;;;0.10;0.10;;;17.50;99.90;;;;;;5024858;28;20902;-81
2023/07/18 01:10:24;;;;;;;0.10;0.10;;;17.50;99.90;;;;;;5023996;28;20202;-81
2023/07/18 01:12:57;;;;;;;0.10;0.10;;;17.50;99.90;;;;;;5022948;28;20178;-81
2023/07/18 01:15:31;;;;;;;0.10;0.10;;;17.40;99.90;;;;;;5021478;28;20185;-81
2023/07/18 01:17:57;;;;;;;0.10;0.10;;;17.10;99.90;;;;;;5024788;28;20292;-81
2023/07/18 01:20:27;;;;;;;0.10;0.10;;;16.90;99.90;;;;;;5022310;28;20216;-81
2023/07/18 01:22:57;;;;;;;0.10;0.10;;;16.80;99.90;;;;;;5022234;28;20190;-82
2023/07/18 01:25:23;;;;;;;0.10;0.10;;;16.80;99.90;;;;;;5020564;28;20645;-81
2023/07/18 01:27:51;;;;;;;0.10;0.10;;;16.70;99.90;;;;;;5023812;28;20222;-81
2023/07/18 01:30:19;;;;;;;0.10;0.10;;;16.70;99.90;;;;;;5031430;28;20232;-81
2023/07/18 01:32:48;;;;;;;0.10;0.10;;;16.60;99.90;;;;;;5024425;28;20262;-81
2023/07/18 01:35:14;;;;;;;0.10;0.10;;;16.40;99.90;;;;;;5021839;28;20318;-82
2023/07/18 01:37:40;;;;;;;0.10;0.10;;;16.30;99.90;;;;;;5023436;28;20513;-82
2023/07/18 01:40:12;;;;;;;0.10;0.10;;;16.20;99.90;;;;;;5024097;28;20684;-81
2023/07/18 01:42:38;;;;;;;0.10;0.10;;;16.10;99.90;;;;;;5030697;28;20190;-81
2023/07/18 01:45:04;;;;;;;0.10;0.10;;;16.00;99.90;;;;;;5022615;28;20182;-81
2023/07/18 01:47:33;;;;;;;0.10;0.10;;;16.00;99.90;;;;;;5023109;28;20210;-81
2023/07/18 01:50:00;;;;;;;0.10;0.10;;;16.10;99.90;;;;;;5024020;28;20247;-82
2023/07/18 01:52:28;;;;;;;0.10;0.10;;;16.00;99.90;;;;;;5021770;28;20563;-81
2023/07/18 01:54:58;;;;;;;0.10;0.10;;;15.90;99.90;;;;;;5022198;28;20305;-81
2023/07/18 01:57:42;;;;;;;0.10;0.10;;;15.70;99.90;;;;;;5021997;28;20190;-81
2023/07/18 02:00:12;;;;;;;0.10;0.10;;;15.60;99.90;;;;;;5020995;28;20636;-81
2023/07/18 02:02:41;;;;;;;0.10;0.10;;;15.50;99.90;;;;;;5021816;28;20539;-81
2023/07/18 02:05:07;;;;;;;0.10;0.10;;;15.40;99.90;;;;;;5021049;28;20202;-81
2023/07/18 02:07:33;;;;;;;0.10;0.10;;;15.40;99.90;;;;;;5022130;28;20663;-81
2023/07/18 02:10:00;;;;;;;0.10;0.10;;;15.30;99.90;;;;;;5023627;28;20202;-81
2023/07/18 02:12:26;;;;;;;0.00;0.00;;;15.30;99.90;;;;;;5021521;28;20209;-81
2023/07/18 02:14:51;;;;;;;0.10;0.10;;;15.30;99.90;;;;;;5020923;28;20218;-81
2023/07/18 02:17:17;;;;;;;0.10;0.10;;;15.20;99.90;;;;;;5021314;28;20230;-81
2023/07/18 02:19:43;;;;;;;0.10;0.10;;;15.10;99.90;;;;;;5023250;28;20218;-81
2023/07/18 02:22:08;;;;;;;0.10;0.10;;;15.10;99.90;;;;;;5020906;28;20194;-81
2023/07/18 02:24:34;;;;;;;0.10;0.10;;;15.20;99.90;;;;;;5023610;28;20251;-81
2023/07/18 02:27:00;;;;;;;0.10;0.10;;;15.20;99.90;;;;;;5023019;28;20942;-81
2023/07/18 02:29:26;;;;;;;0.10;0.10;;;15.30;99.90;;;;;;5022072;28;20302;-81
2023/07/18 02:31:51;;;;;;;0.10;0.10;;;15.30;99.90;;;;;;5021626;28;20200;-82
2023/07/18 02:34:17;;;;;;;0.10;0.10;;;15.10;99.90;;;;;;5019680;28;20282;-81
2023/07/18 02:36:43;;;;;;;0.10;0.10;;;15.00;99.90;;;;;;5019867;28;20193;-81
2023/07/18 02:39:10;;;;;;;0.10;0.10;;;14.90;99.90;;;;;;5021533;28;20201;-81
2023/07/18 02:41:36;;;;;;;0.10;0.10;;;14.90;99.90;;;;;;5020985;28;20201;-82
2023/07/18 02:44:02;;;;;;;0.10;0.10;;;14.80;99.90;;;;;;5022428;28;20336;-81
2023/07/18 02:46:28;;;;;;;0.10;0.10;;;14.80;99.90;;;;;;5017478;28;20220;-81
2023/07/18 02:48:53;;;;;;;0.10;0.10;;;14.70;99.90;;;;;;5022209;28;20261;-81
2023/07/18 02:51:19;;;;;;;0.10;0.10;;;14.70;99.90;;;;;;5021725;28;20213;-81
2023/07/18 02:53:44;;;;;;;0.10;0.10;;;14.60;99.90;;;;;;5022474;28;20249;-81
2023/07/18 02:56:10;;;;;;;0.10;0.10;;;14.60;99.90;;;;;;5022999;28;20674;-81
2023/07/18 02:58:36;;;;;;;0.10;0.10;;;14.60;99.90;;;;;;5021432;28;20194;-81
2023/07/18 03:01:03;;;;;;;0.10;0.10;;;14.80;99.90;;;;;;5019289;28;20205;-81
2023/07/18 03:03:29;;;;;;;0.10;0.10;;;14.80;99.90;;;;;;5020949;28;20186;-81
2023/07/18 03:05:55;;;;;;;0.10;0.10;;;14.90;99.90;;;;;;5020615;28;20312;-81
2023/07/18 03:08:20;;;;;;;0.10;0.10;;;15.00;99.90;;;;;;5023682;28;20217;-81
2023/07/18 03:10:47;;;;;;;0.10;0.10;;;15.10;99.90;;;;;;5020607;28;20202;-81
2023/07/18 03:13:13;;;;;;;0.10;0.10;;;15.10;99.90;;;;;;5019494;28;20190;-81
2023/07/18 03:15:39;;;;;;;0.10;0.10;;;15.10;99.90;;;;;;5020635;28;20265;-81
2023/07/18 03:18:07;;;;;;;0.10;0.10;;;15.10;99.90;;;;;;5019522;28;20213;-81
2023/07/18 03:20:33;;;;;;;0.10;0.10;;;15.00;99.90;;;;;;5019744;28;20730;-81
2023/07/18 03:22:59;;;;;;;0.10;0.10;;;14.80;99.90;;;;;;5020232;28;20202;-81
2023/07/18 03:25:25;;;;;;;0.10;0.10;;;14.70;99.90;;;;;;5013283;28;20198;-81
2023/07/18 03:27:51;;;;;;;0.10;0.10;;;14.70;99.90;;;;;;5022450;28;20210;-81
2023/07/18 03:30:17;;;;;;;0.10;0.10;;;14.70;99.90;;;;;;5022046;28;20235;-81
2023/07/18 03:32:43;;;;;;;0.10;0.10;;;14.60;99.90;;;;;;5019965;28;20640;-81
2023/07/18 03:35:10;;;;;;;0.10;0.10;;;14.70;99.90;;;;;;5021986;28;20715;-80
2023/07/18 03:37:36;;;;;;;0.10;0.10;;;14.70;99.90;;;;;;5021347;28;20194;-81
2023/07/18 03:40:06;;;;;;;0.10;0.10;;;14.80;99.90;;;;;;5021623;28;20211;-81
2023/07/18 03:42:32;;;;;;;0.10;0.10;;;14.80;99.90;;;;;;5021638;28;21097;-81
2023/07/18 03:44:57;;;;;;;0.10;0.10;;;14.80;99.90;;;;;;5020185;28;20192;-81
2023/07/18 03:47:23;;;;;;;0.10;0.10;;;14.70;99.90;;;;;;5019955;28;20238;-81
2023/07/18 03:49:50;;;;;;;0.10;0.10;;;14.60;99.90;;;;;;5021691;28;20286;-82
2023/07/18 03:52:15;;;;;;;0.10;0.10;;;14.60;99.90;;;;;;5020451;28;20238;-81
2023/07/18 03:54:41;;;;;;;0.10;0.10;;;14.80;99.90;;;;;;5021320;28;20643;-81
2023/07/18 03:57:07;;;;;;;0.10;0.10;;;15.30;99.90;;;;;;5021285;28;20186;-81
2023/07/18 03:59:33;;;;;;;0.10;0.10;;;15.50;99.90;;;;;;5018227;28;20550;-81
2023/07/18 04:01:58;;;;;;;0.10;0.10;;;16.10;99.90;;;;;;5020823;28;20193;-80
2023/07/18 04:04:24;;;;;;;0.10;0.10;;;16.50;99.90;;;;;;5021995;28;20186;-82
2023/07/18 04:06:49;;;;;;;0.10;0.10;;;16.70;99.90;;;;;;5021482;28;20217;-82
2023/07/18 04:09:15;;;;;;;0.10;0.10;;;17.00;99.90;;;;;;5022579;28;20719;-81
2023/07/18 04:11:43;;;;;;;0.10;0.10;;;17.40;99.90;;;;;;5023072;28;20255;-82
2023/07/18 04:14:09;;;;;;;0.10;0.10;;;17.90;99.90;;;;;;5020985;28;20179;-82
2023/07/18 04:16:35;;;;;;;0.10;0.10;;;18.20;99.90;;;;;;5023690;28;20795;-81
2023/07/18 04:19:00;;;;;;;0.10;0.10;;;18.50;99.90;;;;;;5024564;28;20236;-82
2023/07/18 04:21:26;;;;;;;0.10;0.10;;;18.80;99.90;;;;;;5023528;28;20715;-82
2023/07/18 04:23:51;;;;;;;0.10;0.10;;;18.70;99.90;;;;;;5020362;28;20201;-82
2023/07/18 04:26:17;;;;;;;0.10;0.10;;;18.30;99.90;;;;;;5024037;28;20197;-81
2023/07/18 04:28:43;;;;;;;0.10;0.10;;;18.00;99.90;;;;;;5020390;28;20190;-82
2023/07/18 04:31:08;;;;;;;0.10;0.10;;;17.50;99.90;;;;;;5021905;28;20206;-81
2023/07/18 04:33:36;;;;;;;0.10;0.10;;;17.10;99.90;;;;;;5024397;28;20757;-82
2023/07/18 04:36:02;;;;;;;0.10;0.10;;;16.90;99.90;;;;;;5021820;28;20194;-81
2023/07/18 04:38:28;;;;;;;0.10;0.10;;;16.60;99.90;;;;;;5026479;28;20269;-82
2023/07/18 04:40:54;;;;;;;0.10;0.10;;;16.50;99.90;;;;;;5023125;28;20419;-82
2023/07/18 04:43:19;;;;;;;0.10;0.10;;;16.40;99.90;;;;;;5025200;28;20276;-82
2023/07/18 04:45:47;;;;;;;0.10;0.10;;;16.30;99.90;;;;;;5026135;28;20297;-82
2023/07/18 04:48:17;;;;;;;0.10;0.10;;;16.20;99.90;;;;;;5022136;28;20296;-80
2023/07/18 04:50:45;;;;;;;0.10;0.10;;;16.20;99.90;;;;;;5022617;28;20207;-81
2023/07/18 04:53:11;;;;;;;0.10;0.10;;;16.20;99.90;;;;;;5027418;28;20182;-81
2023/07/18 04:55:37;;;;;;;0.10;0.10;;;16.10;99.90;;;;;;5038381;28;20542;-81
2023/07/18 04:58:05;;;;;;;0.10;0.10;;;16.10;99.90;;;;;;5024784;28;20189;-81
2023/07/18 05:00:31;;;;;;;0.10;0.10;;;16.10;99.90;;;;;;5027534;28;20755;-81
2023/07/18 05:02:58;;;;;;;0.10;0.10;;;16.30;99.90;;;;;;5025491;28;20679;-86
2023/07/18 05:05:28;;;;;;;0.10;0.10;;;16.20;99.90;;;;;;5023751;28;20209;-81
2023/07/18 05:07:54;;;;;;;0.10;0.10;;;16.30;99.90;;;;;;5022415;28;20597;-81
2023/07/18 05:10:22;;;;;;;0.10;0.10;;;16.40;99.90;;;;;;5022253;28;20206;-82
2023/07/18 05:12:47;;;;;;;0.10;0.10;;;16.30;99.90;;;;;;5023379;28;20182;-82
2023/07/18 05:15:13;;;;;;;0.10;0.10;;;16.40;99.90;;;;;;5024235;28;20205;-82
2023/07/18 05:17:39;;;;;;;0.10;0.10;;;16.50;99.90;;;;;;5021484;28;20191;-82
2023/07/18 05:20:05;;;;;;;0.10;0.10;;;16.90;99.90;;;;;;5023432;28;20224;-82
2023/07/18 05:22:30;;;;;;;0.10;0.10;;;17.20;99.90;;;;;;5020743;28;20190;-82
2023/07/18 05:24:56;;;;;;;0.10;0.10;;;17.40;99.90;;;;;;5021798;28;20186;-82
2023/07/18 05:27:21;;;;;;;0.10;0.10;;;17.40;99.90;;;;;;5023374;28;20654;-82
2023/07/18 05:29:48;;;;;;;0.10;0.10;;;17.40;99.90;;;;;;5022063;28;20209;-82
2023/07/18 05:32:14;;;;;;;0.10;0.10;;;17.40;99.90;;;;;;5022489;28;20241;-82
2023/07/18 05:34:39;;;;;;;0.10;0.10;;;17.40;99.90;;;;;;5024451;28;20178;-83
2023/07/18 05:37:05;;;;;;;0.10;0.10;;;17.60;99.90;;;;;;5024418;28;20191;-82
2023/07/18 05:39:31;;;;;;;0.10;0.10;;;17.90;99.90;;;;;;5023793;28;20302;-82
2023/07/18 05:41:57;;;;;;;0.10;0.10;;;18.10;99.90;;;;;;5022682;28;20186;-83
2023/07/18 05:44:22;;;;;;;0.10;0.10;;;18.20;99.90;;;;;;5021736;28;20735;-83
2023/07/18 05:46:48;;;;;;;0.10;0.10;;;18.30;99.90;;;;;;5019632;28;20219;-83
2023/07/18 05:49:14;;;;;;;0.10;0.10;;;18.50;99.90;;;;;;5021679;28;20199;-83
2023/07/18 05:51:40;;;;;;;0.10;0.10;;;18.50;99.90;;;;;;5023011;28;20289;-83
2023/07/18 05:54:06;;;;;;;0.10;0.10;;;18.60;99.90;;;;;;5026014;28;20729;-83
2023/07/18 05:56:32;;;;;;;0.10;0.10;;;19.00;99.90;;;;;;5024195;28;20285;-83
2023/07/18 05:59:00;;;;;;;0.10;0.10;;;19.20;99.90;;;;;;5022148;28;20695;-83
2023/07/18 06:01:25;;;;;;;0.10;0.10;;;19.40;99.90;;;;;;5021257;28;20214;-83
2023/07/18 06:03:51;;;;;;;0.10;0.10;;;19.60;99.90;;;;;;5027087;28;20189;-83
2023/07/18 06:06:16;;;;;;;0.10;0.10;;;19.70;99.90;;;;;;5023178;28;20198;-83
2023/07/18 06:08:42;;;;;;;0.10;0.10;;;19.60;99.90;;;;;;5023014;28;20186;-83
2023/07/18 06:11:08;;;;;;;0.10;0.10;;;19.80;99.90;;;;;;5021910;28;20754;-83
2023/07/18 06:13:33;;;;;;;0.10;0.10;;;20.00;99.90;;;;;;5025403;28;20206;-83
2023/07/18 06:15:59;;;;;;;0.23;0.23;;;20.30;99.90;;;;;;5021551;28;20257;-83
2023/07/18 06:18:24;;;;;;;0.10;0.10;;;20.40;99.90;;;;;;5022260;28;20190;-83
2023/07/18 06:20:50;;;;;;;0.10;0.10;;;20.60;99.90;;;;;;5024197;28;20198;-83
2023/07/18 06:23:16;;;;;;;0.10;0.10;;;20.50;99.90;;;;;;5022697;28;20186;-83
2023/07/18 06:25:41;;;;;;;0.10;0.10;;;19.70;99.90;;;;;;5020878;28;20209;-83
2023/07/18 06:28:07;;;;;;;0.10;0.10;;;19.40;99.90;;;;;;5022628;28;20194;-83
2023/07/18 06:30:33;;;;;;;0.10;0.10;;;19.60;99.90;;;;;;5022475;28;21499;-83
2023/07/18 06:32:59;;;;;;;0.10;0.10;;;19.60;99.90;;;;;;5015207;28;20179;-82
2023/07/18 06:35:26;;;;;;;0.10;0.10;;;19.70;99.90;;;;;;5019719;28;20243;-82
2023/07/18 06:37:52;;;;;;;0.10;0.10;;;19.90;99.90;;;;;;5021640;28;21217;-82
2023/07/18 06:40:18;;;;;;;0.10;0.10;;;20.10;99.90;;;;;;5022602;28;20209;-82
2023/07/18 06:42:43;;;;;;;0.10;0.10;;;20.30;99.90;;;;;;5018440;28;20645;-83
2023/07/18 06:45:09;;;;;;;0.10;0.10;;;20.30;99.90;;;;;;5019340;28;20197;-83
2023/07/18 06:47:35;;;;;;;0.10;0.10;;;20.20;99.90;;;;;;5019113;28;20703;-82
2023/07/18 06:50:01;;;;;;;0.10;0.10;;;20.60;99.90;;;;;;5019562;28;20623;-82
2023/07/18 06:52:27;;;;;;;0.10;0.10;;;21.00;99.90;;;;;;5019696;28;20588;-82
2023/07/18 06:54:55;;;;;;;0.10;0.10;;;21.20;99.90;;;;;;5019341;28;20273;-82
2023/07/18 06:57:21;;;;;;;0.10;0.10;;;21.40;99.90;;;;;;5019519;28;20229;-83
2023/07/18 06:59:46;;;;;;;0.10;0.10;;;21.50;99.90;;;;;;5022945;28;21409;-82
2023/07/18 07:02:12;;;;;;;0.10;0.10;;;21.30;99.90;;;;;;5021846;28;20949;-82
2023/07/18 07:04:39;;;;;;;0.10;0.10;;;21.50;99.90;;;;;;5021118;28;20920;-82
2023/07/18 07:07:08;;;;;;;0.10;0.10;;;21.80;99.90;;;;;;5016952;28;20220;-85
2023/07/18 07:09:34;;;;;;;0.10;0.10;;;21.10;99.90;;;;;;5019577;28;20193;-85
2023/07/18 07:12:01;;;;;;;0.10;0.10;;;21.30;99.90;;;;;;5019038;28;20183;-84
2023/07/18 07:14:26;;;;;;;0.10;0.10;;;21.60;99.90;;;;;;5017478;28;20679;-84
2023/07/18 07:16:53;;;;;;;0.10;0.10;;;21.60;99.90;;;;;;5019056;28;20190;-85
2023/07/18 07:19:18;;;;;;;0.10;0.10;;;21.30;99.90;;;;;;5019187;28;20225;-83
2023/07/18 07:21:45;;;;;;;0.10;0.10;;;21.00;99.90;;;;;;5021777;28;20234;-83
2023/07/18 07:24:11;;;;;;;0.10;0.10;;;20.80;99.90;;;;;;5021627;28;20195;-84
2023/07/18 07:26:40;;;;;;;0.10;0.10;;;21.10;99.90;;;;;;5023513;28;20210;-84
2023/07/18 07:29:07;;;;;;;0.10;0.10;;;21.50;99.90;;;;;;5021478;28;20249;-83
2023/07/18 07:31:32;;;;;;;0.10;0.10;;;22.00;99.90;;;;;;5020106;28;20635;-84
2023/07/18 07:33:58;;;;;;;0.10;0.10;;;22.20;99.90;;;;;;5019261;28;20194;-84
2023/07/18 07:36:24;;;;;;;0.10;0.10;;;22.20;99.90;;;;;;5023981;28;20248;-83
2023/07/18 07:38:49;;;;;;;0.10;0.10;;;22.50;99.90;;;;;;5023802;28;20652;-84
2023/07/18 07:41:15;;;;;;;0.10;0.10;;;22.50;99.90;;;;;;5024028;28;20269;-83
2023/07/18 07:43:41;;;;;;;0.10;0.10;;;22.70;99.90;;;;;;5021355;28;20216;-84
2023/07/18 07:46:07;;;;;;;0.10;0.10;;;22.80;99.90;;;;;;5022435;28;20179;-83
2023/07/18 07:48:32;;;;;;;0.10;0.10;;;23.10;99.90;;;;;;5022261;28;20742;-84
2023/07/18 07:51:00;;;;;;;0.10;0.10;;;23.30;99.90;;;;;;5022425;28;20279;-83
2023/07/18 07:53:26;;;;;;;0.10;0.10;;;23.40;99.90;;;;;;5022225;28;20189;-83
2023/07/18 07:55:52;;;;;;;0.10;0.10;;;23.40;99.90;;;;;;5025212;28;20186;-84
2023/07/18 07:58:17;;;;;;;0.10;0.10;;;22.70;99.90;;;;;;5019507;28;20191;-83
2023/07/18 08:00:43;;;;;;;0.10;0.10;;;22.60;99.90;;;;;;5020911;28;20240;-83
2023/07/18 08:03:09;;;;;;;0.10;0.10;;;23.00;99.90;;;;;;5021621;28;20221;-83
2023/07/18 08:05:34;;;;;;;0.10;0.10;;;23.20;99.90;;;;;;5021801;28;20213;-83
2023/07/18 08:08:01;;;;;;;0.10;0.10;;;23.50;99.90;;;;;;5021373;28;20230;-83
2023/07/18 08:10:27;;;;;;;0.10;0.10;;;23.50;99.90;;;;;;5021497;28;20212;-84
2023/07/18 08:12:52;;;;;;;0.10;0.10;;;22.80;99.90;;;;;;5020790;28;20248;-84
2023/07/18 08:15:19;;;;;;;0.10;0.10;;;22.60;99.90;;;;;;5020742;28;20193;-84
2023/07/18 08:17:45;;;;;;;0.10;0.10;;;22.70;99.90;;;;;;5020886;28;20687;-83
2023/07/18 08:20:12;;;;;;;0.10;0.10;;;23.10;99.90;;;;;;5019732;28;20313;-84
2023/07/18 08:22:38;;;;;;;0.10;0.10;;;23.70;99.90;;;;;;5019949;28;20186;-83
2023/07/18 08:25:04;;;;;;;0.10;0.10;;;23.20;99.90;;;;;;5023447;28;20190;-84
2023/07/18 08:27:29;;;;;;;0.10;0.10;;;23.40;99.90;;;;;;5019486;28;20213;-83
2023/07/18 08:29:55;;;;;;;0.10;0.10;;;23.60;99.90;;;;;;5021274;28;20745;-84
2023/07/18 08:32:21;;;;;;;0.10;0.10;;;23.90;99.90;;;;;;5021894;28;20183;-83
2023/07/18 08:34:46;;;;;;;0.10;0.10;;;23.20;99.90;;;;;;5018548;28;20594;-84
2023/07/18 08:37:13;;;;;;;0.10;0.10;;;23.50;99.90;;;;;;5021535;28;20187;-84
2023/07/18 08:39:38;;;;;;;0.10;0.10;;;24.10;99.90;;;;;;5021619;28;20187;-84
2023/07/18 08:42:08;;;;;;;0.10;0.10;;;24.50;99.90;;;;;;5020600;28;20190;-84
2023/07/18 08:44:35;;;;;;;0.10;0.10;;;24.60;99.90;;;;;;5019040;28;20205;-83
2023/07/18 08:47:03;;;;;;;0.10;0.10;;;24.60;99.90;;;;;;5019860;28;20272;-84
2023/07/18 08:49:30;;;;;;;0.10;0.10;;;24.10;99.90;;;;;;5020434;28;20183;-83
2023/07/18 08:51:56;;;;;;;0.10;0.10;;;23.90;99.90;;;;;;5019917;28;20179;-84
2023/07/18 08:54:22;;;;;;;0.10;0.10;;;24.30;99.90;;;;;;5021383;28;20178;-84
2023/07/18 08:56:48;;;;;;;0.10;0.10;;;24.70;99.90;;;;;;5019521;28;20196;-84
2023/07/18 08:59:13;;;;;;;0.10;0.10;;;24.90;99.90;;;;;;5025895;28;20275;-84
2023/07/18 09:01:50;;;;;;;0.63;0.63;;;25.50;99.90;;;;;;5025548;28;20629;-84
2023/07/18 09:04:16;;;;;;;0.10;0.10;;;24.90;99.90;;;;;;5026776;28;20190;-84
2023/07/18 09:06:49;;;;;;;0.10;0.10;;;25.00;99.90;;;;;;5025505;28;20267;-84
2023/07/18 09:09:17;;;;;;;0.10;0.10;;;25.30;99.90;;;;;;5025304;28;20178;-84
2023/07/18 09:12:00;;;;;;;0.10;0.10;;;24.80;99.90;;;;;;5019673;28;20289;-82
2023/07/18 09:14:30;;;;;;;0.10;0.10;;;25.50;99.90;;;;;;5020635;28;20648;-82
2023/07/18 09:16:58;;;;;;;0.10;0.10;;;25.80;99.90;;;;;;5026050;28;20322;-82
2023/07/18 09:19:48;;;;;;;0.10;0.10;;;26.20;99.90;;;;;;5021081;28;20247;-86
2023/07/18 09:22:16;;;;;;;0.10;0.10;;;26.30;99.90;;;;;;5018285;28;20951;-85
2023/07/18 09:24:42;;;;;;;0.10;0.10;;;26.30;99.90;;;;;;5021098;28;20555;-85
2023/07/18 09:27:15;;;;;;;0.10;0.10;;;26.50;99.90;;;;;;5022386;28;20214;-85
2023/07/18 09:29:48;;;;;;;0.10;0.10;;;26.70;99.90;;;;;;5021238;28;20206;-85
2023/07/18 09:32:21;;;;;;;0.10;0.10;;;26.70;99.90;;;;;;5018552;28;20193;-85
2023/07/18 09:34:59;;;;;;;0.10;0.10;;;26.60;99.90;;;;;;5022961;28;20581;-84
2023/07/18 09:37:25;;;;;;;0.10;0.10;;;26.50;99.90;;;;;;5019998;28;20214;-83
2023/07/18 09:39:51;;;;;;;0.10;0.10;;;26.50;99.90;;;;;;5011837;28;20206;-82
2023/07/18 09:42:18;;;;;;;0.10;0.10;;;26.60;99.90;;;;;;5020775;28;20224;-82
2023/07/18 09:44:48;;;;;;;0.10;0.10;;;26.90;99.90;;;;;;5016940;28;20191;-81
2023/07/18 09:47:15;;;;;;;0.10;0.10;;;27.00;99.90;;;;;;5022454;28;20210;-82
2023/07/18 09:49:44;;;;;;;0.10;0.10;;;27.20;99.90;;;;;;5021498;28;20289;-82
2023/07/18 09:52:11;;;;;;;0.10;0.10;;;27.50;99.90;;;;;;5020465;28;20186;-82
2023/07/18 09:54:38;;;;;;;0.10;0.10;;;27.60;99.90;;;;;;5020698;28;20245;-82
2023/07/18 09:57:06;;;;;;;0.10;0.10;;;27.60;99.90;;;;;;5020613;28;20214;-82
2023/07/18 09:59:37;;;;;;;0.10;0.10;;;26.90;99.90;;;;;;5019740;28;20197;-82
2023/07/18 10:02:06;;;;;;;0.10;0.10;;;26.80;99.90;;;;;;5020336;28;20265;-82
2023/07/18 10:04:34;;;;;;;0.10;0.10;;;27.10;99.90;;;;;;5021704;28;20186;-82
2023/07/18 10:07:01;;;;;;;0.10;0.10;;;27.30;99.90;;;;;;5020630;28;20297;-82
2023/07/18 10:09:27;;;;;;;0.10;0.10;;;27.50;99.90;;;;;;5020804;28;20186;-81
2023/07/18 10:12:00;;;;;;;0.10;0.10;;;27.80;99.90;;;;;;5020648;28;20233;-82
2023/07/18 10:14:29;;;;;;;0.10;0.10;;;28.10;99.90;;;;;;5017946;28;20188;-83
2023/07/18 10:16:58;;;;;;;0.10;0.10;;;28.40;99.90;;;;;;5020261;28;20191;-84
2023/07/18 10:19:24;;;;;;;0.10;0.10;;;28.30;99.90;;;;;;5019695;28;20202;-84
2023/07/18 10:21:56;;;;;;;0.10;0.10;;;28.20;99.90;;;;;;5015635;28;20237;-84
2023/07/18 10:24:24;;;;;;;0.10;0.10;;;28.30;99.90;;;;;;5017350;28;20190;-84
2023/07/18 10:27:06;;;;;;;0.10;0.10;;;28.60;99.90;;;;;;5021974;28;20213;-84
2023/07/18 10:29:32;;;;;;;0.10;0.10;;;28.90;99.90;;;;;;5020084;28;20206;-83
2023/07/18 10:31:59;;;;;;;0.10;0.10;;;28.80;99.90;;;;;;5016918;28;20225;-83
2023/07/18 10:34:25;;;;;;;0.10;0.10;;;28.40;99.90;;;;;;5019091;28;20249;-82
2023/07/18 10:37:00;;;;;;;0.10;0.10;;;28.80;99.90;;;;;;5018091;28;20356;-82
2023/07/18 10:39:40;;;;;;;0.10;0.10;;;28.90;99.90;;;;;;5015832;28;20537;-81
2023/07/18 10:42:28;;;;;;;0.10;0.10;;;27.90;99.90;;;;;;5018450;28;20273;-82
2023/07/18 10:45:06;;;;;;;0.10;0.10;;;28.20;99.90;;;;;;5017020;28;20179;-82
2023/07/18 10:47:36;;;;;;;0.10;0.10;;;27.60;99.90;;;;;;5020159;28;20252;-81
2023/07/18 10:50:03;;;;;;;0.10;0.10;;;27.90;99.90;;;;;;5016620;28;20606;-82
2023/07/18 10:52:29;;;;;;;0.10;0.10;;;27.00;99.90;;;;;;5020177;28;20193;-81
2023/07/18 10:55:00;;;;;;;0.10;0.10;;;26.60;99.90;;;;;;5016902;28;20191;-82
2023/07/18 10:57:27;;;;;;;0.10;0.10;;;26.90;99.90;;;;;;5020598;28;20228;-81
2023/07/18 10:59:53;;;;;;;0.10;0.10;;;27.30;99.90;;;;;;5021701;28;20214;-82
2023/07/18 11:02:22;;;;;;;0.10;0.10;;;26.60;99.90;;;;;;5016890;28;20193;-82
2023/07/18 11:04:51;;;;;;;0.10;0.10;;;26.40;99.90;;;;;;5016663;28;20208;-81
2023/07/18 11:07:17;;;;;;;0.10;0.10;;;26.50;99.90;;;;;;5020058;28;20210;-81
2023/07/18 11:09:43;;;;;;;0.10;0.10;;;27.10;99.90;;;;;;5019414;28;20637;-82
2023/07/18 11:12:18;;;;;;;0.10;0.10;;;27.50;99.90;;;;;;5018753;28;20218;-81
2023/07/18 11:14:46;;;;;;;0.10;0.10;;;27.90;99.90;;;;;;5016270;28;20201;-82
2023/07/18 11:17:17;;;;;;;0.10;0.10;;;28.20;99.90;;;;;;5015537;28;20235;-81
2023/07/18 11:19:43;;;;;;;0.10;0.10;;;28.40;99.90;;;;;;5018294;28;21081;-82
2023/07/18 11:22:16;;;;;;;0.10;0.10;;;28.20;99.90;;;;;;5017797;28;20194;-82
2023/07/18 11:24:45;;;;;;;0.10;0.10;;;27.90;99.90;;;;;;5014677;28;20191;-82
2023/07/18 11:27:14;;;;;;;0.10;0.10;;;27.90;99.90;;;;;;5015272;28;20213;-82
2023/07/18 11:29:40;;;;;;;0.10;0.10;;;28.30;99.90;;;;;;5019321;28;20249;-82
2023/07/18 11:32:06;;;;;;;0.10;0.10;;;27.80;99.90;;;;;;5018681;28;20194;-82
2023/07/18 11:34:32;;;;;;;0.10;0.10;;;27.40;99.90;;;;;;5014740;28;20183;-82
2023/07/18 11:36:57;;;;;;;0.10;0.10;;;27.80;99.90;;;;;;5018728;28;20232;-82
2023/07/18 11:39:23;;;;;;;0.10;0.10;;;27.80;99.90;;;;;;5017013;28;20195;-82
2023/07/18 11:41:51;;;;;;;0.10;0.10;;;27.70;99.90;;;;;;5020198;28;20218;-81
2023/07/18 11:44:24;;;;;;;0.10;0.10;;;27.20;99.90;;;;;;5020835;28;20234;-81
2023/07/18 11:46:52;;;;;;;0.10;0.10;;;27.30;99.90;;;;;;5020994;28;20979;-82
2023/07/18 11:49:18;;;;;;;0.10;0.10;;;26.80;99.90;;;;;;5020399;28;20178;-81
2023/07/18 11:51:43;;;;;;;0.10;0.10;;;26.80;99.90;;;;;;5019586;28;20221;-82
2023/07/18 11:54:09;;;;;;;0.10;0.10;;;27.40;99.90;;;;;;5020906;28;20182;-82
2023/07/18 11:56:36;;;;;;;0.10;0.10;;;27.50;99.90;;;;;;5017456;28;20197;-81
2023/07/18 11:59:02;;;;;;;0.10;0.10;;;27.40;99.90;;;;;;5020729;28;20201;-81
2023/07/18 12:01:28;;;;;;;0.10;0.10;;;27.80;99.90;;;;;;5019072;28;20202;-81
2023/07/18 12:03:57;;;;;;;0.10;0.10;;;27.30;99.90;;;;;;5018035;28;20190;-81
2023/07/18 12:06:22;;;;;;;0.10;0.10;;;27.10;99.90;;;;;;5016440;28;20256;-81
2023/07/18 12:08:49;;;;;;;0.10;0.10;;;26.90;99.90;;;;;;5019235;28;20248;-82
2023/07/18 12:11:15;;;;;;;0.10;0.10;;;27.00;99.90;;;;;;5019119;28;20207;-81
2023/07/18 12:13:41;;;;;;;0.10;0.10;;;27.00;99.90;;;;;;5018480;28;20206;-82
2023/07/18 12:16:07;;;;;;;0.10;0.10;;;27.00;99.90;;;;;;5016217;28;20249;-81
2023/07/18 12:18:33;;;;;;;0.10;0.10;;;27.40;99.90;;;;;;5019376;28;21909;-81
2023/07/18 12:20:58;;;;;;;0.10;0.10;;;27.20;99.90;;;;;;5020006;28;20331;-82
2023/07/18 12:23:25;;;;;;;0.10;0.10;;;27.60;99.90;;;;;;5021805;28;20779;-82
2023/07/18 12:25:51;;;;;;;0.10;0.10;;;28.00;99.90;;;;;;5017187;28;20187;-82
2023/07/18 12:28:16;;;;;;;0.10;0.10;;;27.40;99.90;;;;;;5015203;28;20858;-82
2023/07/18 12:30:42;;;;;;;0.10;0.10;;;27.80;99.90;;;;;;5017832;28;20194;-82
2023/07/18 12:33:08;;;;;;;0.10;0.10;;;27.20;99.90;;;;;;5018774;28;20259;-82
2023/07/18 12:35:34;;;;;;;0.10;0.10;;;27.40;99.90;;;;;;5023069;28;20178;-82
2023/07/18 12:38:00;;;;;;;0.10;0.10;;;27.00;99.90;;;;;;5020257;28;20205;-83
2023/07/18 12:40:26;;;;;;;0.10;0.10;;;27.60;99.90;;;;;;5021817;28;20202;-82
2023/07/18 12:42:52;;;;;;;0.10;0.10;;;28.20;99.90;;;;;;5022725;28;20352;-82
2023/07/18 12:45:18;;;;;;;0.10;0.10;;;28.00;99.90;;;;;;5019626;28;20199;-82
2023/07/18 12:47:44;;;;;;;0.10;0.10;;;27.70;99.90;;;;;;5020610;28;20207;-82